createdAt,value
2022-09-07T00:00:16.633Z,3.88
2022-09-07T00:02:45.891Z,3.83
2022-09-07T00:05:13.809Z,3.38
2022-09-07T00:07:41.702Z,2.60
2022-09-07T00:10:10.300Z,2.40
2022-09-07T00:12:38.250Z,2.55
2022-09-07T00:15:09.400Z,2.35
2022-09-07T00:17:38.123Z,2.60
2022-09-07T00:20:09.342Z,2.20
2022-09-07T00:22:37.637Z,2.35
2022-09-07T00:25:06.518Z,2.60
2022-09-07T00:27:34.489Z,2.65
2022-09-07T00:30:02.421Z,2.47
2022-09-07T00:32:30.396Z,2.50
2022-09-07T00:34:58.387Z,2.03
2022-09-07T00:37:27.702Z,2.47
2022-09-07T00:39:55.639Z,2.33
2022-09-07T00:42:24.464Z,2.30
2022-09-07T00:45:03.028Z,2.85
2022-09-07T00:47:36.847Z,3.08
2022-09-07T00:50:11.922Z,2.85
2022-09-07T00:52:43.348Z,2.72
2022-09-07T00:55:14.806Z,3.00
2022-09-07T00:57:47.460Z,3.00
2022-09-07T01:00:15.449Z,2.55
2022-09-07T01:02:43.563Z,3.00
2022-09-07T01:05:18.499Z,2.50
2022-09-07T01:07:48.205Z,2.53
2022-09-07T01:10:16.106Z,2.90
2022-09-07T01:12:44.051Z,2.58
2022-09-07T01:15:12.400Z,2.60
2022-09-07T01:17:54.043Z,2.50
2022-09-07T01:20:40.461Z,2.60
2022-09-07T01:23:43.294Z,2.53
2022-09-07T01:28:56.034Z,2.40
2022-09-07T01:31:33.030Z,2.67
2022-09-07T01:34:10.134Z,2.90
2022-09-07T01:36:46.449Z,2.85
2022-09-07T01:39:14.564Z,2.85
2022-09-07T01:41:48.272Z,3.20
2022-09-07T01:44:21.835Z,3.35
2022-09-07T01:46:54.781Z,3.10
2022-09-07T01:49:26.126Z,2.72
2022-09-07T01:51:59.502Z,3.17
2022-09-07T01:54:31.498Z,3.42
2022-09-07T01:57:03.950Z,3.20
2022-09-07T02:02:06.690Z,3.03
2022-09-07T02:04:39.358Z,3.60
2022-09-07T02:07:12.955Z,3.50
2022-09-07T02:09:49.917Z,3.80
2022-09-07T02:12:22.743Z,3.70
2022-09-07T02:14:57.121Z,3.67
2022-09-07T02:17:32.443Z,3.67
2022-09-07T02:20:07.308Z,3.40
2022-09-07T02:22:38.805Z,3.45
2022-09-07T02:25:08.562Z,3.33
2022-09-07T02:27:42.318Z,3.25
2022-09-07T02:30:13.062Z,3.40
2022-09-07T02:32:41.058Z,4.20
2022-09-07T02:35:10.169Z,4.60
2022-09-07T02:37:39.454Z,4.80
2022-09-07T02:40:08.843Z,3.95
2022-09-07T02:42:37.898Z,3.53
2022-09-07T02:45:09.258Z,3.38
2022-09-07T02:47:50.326Z,3.38
2022-09-07T02:50:46.198Z,3.88
2022-09-07T02:53:28.532Z,3.22
2022-09-07T02:56:06.906Z,3.67
2022-09-07T02:58:43.931Z,3.90
2022-09-07T03:01:22.958Z,3.65
2022-09-07T03:03:59.207Z,4.10
2022-09-07T03:06:31.630Z,3.45
2022-09-07T03:09:02.913Z,4.07
2022-09-07T03:11:31.597Z,3.97
2022-09-07T03:14:13.245Z,4.03
2022-09-07T03:16:41.205Z,4.60
2022-09-07T03:19:10.522Z,3.50
2022-09-07T03:21:38.425Z,5.00
2022-09-07T03:24:07.146Z,3.95
2022-09-07T03:26:41.563Z,4.10
2022-09-07T03:29:09.507Z,4.13
2022-09-07T03:31:37.917Z,4.20
2022-09-07T03:34:06.102Z,4.13
2022-09-07T03:36:35.755Z,4.28
2022-09-07T03:39:04.000Z,3.88
2022-09-07T03:41:31.950Z,4.20
2022-09-07T03:44:05.498Z,4.60
2022-09-07T03:46:34.346Z,4.60
2022-09-07T03:49:02.337Z,4.07
2022-09-07T03:51:31.030Z,4.53
2022-09-07T03:54:00.670Z,4.45
2022-09-07T03:56:28.794Z,4.85
2022-09-07T03:58:57.029Z,5.50
2022-09-07T04:01:27.112Z,5.18
2022-09-07T04:04:01.976Z,5.20
2022-09-07T04:06:31.041Z,4.57
2022-09-07T04:09:03.118Z,5.72
2022-09-07T04:11:31.602Z,6.00
2022-09-07T04:13:59.574Z,5.88
2022-09-07T04:16:28.546Z,5.72
2022-09-07T04:18:57.663Z,5.07
2022-09-07T04:21:26.837Z,4.70
2022-09-07T04:23:55.342Z,6.28
2022-09-07T04:26:25.730Z,5.13
2022-09-07T04:28:54.424Z,5.93
2022-09-07T04:31:24.244Z,5.22
2022-09-07T04:33:53.240Z,4.60
2022-09-07T04:36:21.765Z,5.13
2022-09-07T04:38:55.553Z,5.30
2022-09-07T04:41:25.308Z,5.25
2022-09-07T04:43:55.479Z,4.70
2022-09-07T04:46:25.235Z,3.80
2022-09-07T04:48:54.906Z,4.60
2022-09-07T04:51:24.322Z,4.15
2022-09-07T04:53:53.761Z,5.95
2022-09-07T04:56:23.910Z,7.68
2022-09-07T04:58:52.013Z,7.32
2022-09-07T05:01:22.099Z,9.13
2022-09-07T05:03:50.605Z,10.00
2022-09-07T05:06:21.282Z,9.73
2022-09-07T05:08:51.146Z,9.95
2022-09-07T05:11:22.798Z,8.63
2022-09-07T05:13:56.113Z,9.98
2022-09-07T05:16:25.235Z,10.77
2022-09-07T05:18:54.622Z,11.35
2022-09-07T05:21:25.609Z,12.68
2022-09-07T05:23:55.623Z,12.00
2022-09-07T05:26:26.849Z,12.65
2022-09-07T05:31:44.390Z,13.77
2022-09-07T05:36:55.687Z,13.25
2022-09-07T05:39:23.818Z,13.98
2022-09-07T05:41:51.694Z,14.95
2022-09-07T05:47:09.179Z,13.65
2022-09-07T05:49:37.520Z,15.20
2022-09-07T05:52:05.469Z,11.30
2022-09-07T05:54:33.409Z,13.85
2022-09-07T05:57:03.131Z,13.98
2022-09-07T05:59:32.412Z,13.93
2022-09-07T06:02:00.870Z,13.85
2022-09-07T06:04:28.895Z,14.82
2022-09-07T06:07:20.488Z,16.17
2022-09-07T06:12:32.604Z,17.20
2022-09-07T06:15:02.046Z,16.05
2022-09-07T06:17:31.057Z,17.80
2022-09-07T06:19:59.105Z,15.35
2022-09-07T06:22:30.769Z,14.40
2022-09-07T06:24:59.323Z,16.25
2022-09-07T06:27:27.191Z,15.45
2022-09-07T06:29:55.345Z,14.52
2022-09-07T06:35:08.786Z,19.60
2022-09-07T06:37:36.637Z,20.55
2022-09-07T06:40:05.147Z,21.45
2022-09-07T06:42:33.369Z,21.70
2022-09-07T06:45:01.425Z,19.60
2022-09-07T06:47:30.668Z,18.40
2022-09-07T06:49:59.141Z,18.92
2022-09-07T06:52:28.246Z,18.15
2022-09-07T06:54:59.487Z,19.23
2022-09-07T06:57:27.923Z,22.03
2022-09-07T06:59:55.950Z,19.50
2022-09-07T07:02:23.824Z,21.27
2022-09-07T07:04:53.061Z,18.77
2022-09-07T07:07:20.990Z,18.05
2022-09-07T07:09:51.898Z,16.88
2022-09-07T07:14:46.547Z,17.20
2022-09-07T07:17:14.513Z,15.27
2022-09-07T07:19:42.390Z,17.00
2022-09-07T07:22:35.915Z,14.90
2022-09-07T07:24:59.520Z,15.23
2022-09-07T07:27:27.558Z,15.85
2022-09-07T07:29:55.448Z,15.60
2022-09-07T07:32:23.369Z,16.10
2022-09-07T07:34:51.225Z,16.35
2022-09-07T07:37:21.994Z,15.10
2022-09-07T07:42:41.522Z,16.13
2022-09-07T07:47:58.479Z,15.52
2022-09-07T07:50:34.110Z,12.45
2022-09-07T07:55:51.974Z,12.77
2022-09-07T07:58:20.245Z,14.18
2022-09-07T08:00:54.677Z,13.75
2022-09-07T08:03:23.866Z,13.38
2022-09-07T08:05:52.072Z,13.35
2022-09-07T08:08:21.652Z,14.70
2022-09-07T08:10:49.854Z,14.75
2022-09-07T08:13:19.035Z,14.98
2022-09-07T08:15:47.161Z,15.15
2022-09-07T08:18:16.951Z,15.55
2022-09-07T08:20:45.043Z,16.48
2022-09-07T08:23:12.912Z,14.90
2022-09-07T08:25:50.788Z,16.45
2022-09-07T08:28:18.901Z,16.42
2022-09-07T08:30:46.820Z,15.07
2022-09-07T08:33:15.013Z,15.75
2022-09-07T08:35:43.062Z,16.25
2022-09-07T08:38:11.302Z,17.25
2022-09-07T08:40:39.730Z,15.07
2022-09-07T08:43:17.191Z,12.73
2022-09-07T08:45:48.040Z,14.70
2022-09-07T08:48:21.069Z,9.52
2022-09-07T08:50:56.263Z,9.55
2022-09-07T08:53:26.166Z,9.73
2022-09-07T08:55:58.313Z,10.43
2022-09-07T08:58:48.821Z,8.25
2022-09-07T09:01:35.492Z,6.38
2022-09-07T09:04:21.455Z,6.50
2022-09-07T09:07:04.407Z,7.40
2022-09-07T09:09:47.346Z,7.00
2022-09-07T09:12:26.578Z,6.72
2022-09-07T09:15:08.119Z,6.40
2022-09-07T09:17:44.315Z,4.37
2022-09-07T09:20:22.020Z,4.15
2022-09-07T09:22:52.112Z,4.45
2022-09-07T09:25:22.539Z,4.32
2022-09-07T09:27:51.122Z,4.40
2022-09-07T09:30:22.000Z,4.88
2022-09-07T09:32:52.566Z,4.63
2022-09-07T09:35:25.689Z,4.43
2022-09-07T09:37:53.551Z,4.47
2022-09-07T09:40:26.371Z,4.47
2022-09-07T09:43:03.233Z,4.97
2022-09-07T09:48:32.944Z,4.57
2022-09-07T09:54:00.074Z,3.85
2022-09-07T09:56:38.889Z,4.05
2022-09-07T10:05:34.303Z,3.67
2022-09-07T10:08:02.773Z,3.22
2022-09-07T10:10:31.533Z,3.30
2022-09-07T10:12:59.714Z,3.72
2022-09-07T10:15:40.098Z,3.78
2022-09-07T10:18:19.270Z,3.10
2022-09-07T10:20:47.170Z,2.50
2022-09-07T10:23:22.856Z,3.10
2022-09-07T10:25:51.188Z,3.55
2022-09-07T10:28:21.440Z,3.17
2022-09-07T10:31:15.104Z,3.30
2022-09-07T10:36:45.609Z,3.72
2022-09-07T10:39:18.206Z,3.50
2022-09-07T10:41:55.694Z,3.60
2022-09-07T10:44:44.811Z,3.38
2022-09-07T10:47:25.332Z,3.50
2022-09-07T10:52:59.012Z,2.95
2022-09-07T10:55:33.259Z,3.00
2022-09-07T10:58:15.759Z,2.80
2022-09-07T11:01:06.663Z,2.80
2022-09-07T11:04:04.424Z,2.85
2022-09-07T11:06:40.755Z,3.00
2022-09-07T11:09:31.020Z,2.60
2022-09-07T11:12:04.066Z,3.40
2022-09-07T11:14:37.806Z,3.33
2022-09-07T11:17:14.108Z,3.45
2022-09-07T11:19:48.460Z,2.55
2022-09-07T11:22:26.398Z,3.08
2022-09-07T11:27:49.668Z,3.15
2022-09-07T11:30:21.653Z,3.03
2022-09-07T11:32:59.962Z,2.90
2022-09-07T11:35:45.761Z,3.03
2022-09-07T11:38:26.409Z,2.80
2022-09-07T11:41:11.256Z,2.58
2022-09-07T11:43:44.560Z,2.47
2022-09-07T11:46:15.747Z,2.35
2022-09-07T11:48:46.849Z,2.47
2022-09-07T11:51:20.854Z,2.33
2022-09-07T11:53:54.731Z,2.88
2022-09-07T11:56:29.220Z,2.30
2022-09-07T11:59:15.694Z,2.35
2022-09-07T12:01:55.688Z,2.40
2022-09-07T12:04:40.293Z,2.40
2022-09-07T12:07:56.293Z,2.40
2022-09-07T12:10:51.199Z,2.33
2022-09-07T12:13:36.598Z,2.30
2022-09-07T12:16:10.951Z,2.53
2022-09-07T12:19:06.170Z,2.67
2022-09-07T12:21:42.027Z,2.60
2022-09-07T12:24:48.619Z,2.67
2022-09-07T12:27:40.282Z,2.30
2022-09-07T12:30:53.531Z,2.80
2022-09-07T12:33:27.538Z,2.75
2022-09-07T12:35:58.837Z,2.78
2022-09-07T12:39:14.995Z,2.75
2022-09-07T12:41:48.785Z,2.75
2022-09-07T12:44:20.807Z,3.17
2022-09-07T12:47:08.478Z,2.90
2022-09-07T12:50:06.127Z,2.60
2022-09-07T12:53:13.699Z,2.92
2022-09-07T12:56:19.675Z,2.63
2022-09-07T12:58:57.587Z,2.78
2022-09-07T13:01:37.829Z,2.85
2022-09-07T13:04:27.949Z,2.63
2022-09-07T13:07:24.045Z,3.28
2022-09-07T13:09:59.395Z,3.10
2022-09-07T13:12:53.615Z,2.70
2022-09-07T13:15:50.400Z,2.50
2022-09-07T13:18:43.712Z,3.03
2022-09-07T13:21:36.926Z,2.50
2022-09-07T13:24:46.268Z,2.80
2022-09-07T13:27:52.979Z,2.53
2022-09-07T13:30:45.198Z,2.60
2022-09-07T13:36:03.114Z,2.47
2022-09-07T13:38:32.775Z,2.20
2022-09-07T13:41:07.248Z,2.33
2022-09-07T13:43:36.930Z,2.50
2022-09-07T13:46:14.245Z,2.70
2022-09-07T13:48:48.565Z,1.92
2022-09-07T13:51:23.370Z,2.10
2022-09-07T13:54:03.026Z,2.35
2022-09-07T13:56:44.298Z,2.25
2022-09-07T13:59:22.030Z,2.40
2022-09-07T14:01:51.497Z,2.30
2022-09-07T14:04:26.059Z,2.22
2022-09-07T14:07:04.259Z,2.05
2022-09-07T14:09:33.832Z,2.42
2022-09-07T14:12:02.158Z,2.35
2022-09-07T14:14:32.937Z,2.53
2022-09-07T14:17:06.170Z,1.98
2022-09-07T14:19:39.214Z,1.98
2022-09-07T14:22:14.154Z,2.10
2022-09-07T14:24:44.352Z,2.15
2022-09-07T14:27:26.706Z,2.22
2022-09-07T14:29:54.693Z,2.03
2022-09-07T14:32:27.127Z,2.10
2022-09-07T14:34:55.492Z,1.83
2022-09-07T14:37:26.055Z,2.20
2022-09-07T14:39:54.800Z,2.20
2022-09-07T14:42:25.688Z,2.13
2022-09-07T14:45:21.050Z,1.88
2022-09-07T14:47:52.309Z,1.90
2022-09-07T14:50:25.666Z,1.90
2022-09-07T14:55:48.685Z,2.30
2022-09-07T14:58:25.667Z,1.90
2022-09-07T15:04:00.638Z,2.30
2022-09-07T15:09:30.790Z,2.47
2022-09-07T15:12:24.923Z,2.15
2022-09-07T15:15:11.081Z,2.50
2022-09-07T15:17:46.168Z,1.98
2022-09-07T15:20:32.599Z,2.28
2022-09-07T15:23:00.792Z,2.33
2022-09-07T15:25:30.603Z,2.33
2022-09-07T15:27:58.940Z,2.10
2022-09-07T15:30:27.380Z,2.30
2022-09-07T15:32:56.867Z,2.47
2022-09-07T15:35:25.151Z,2.05
2022-09-07T15:41:18.193Z,2.10
2022-09-07T15:43:39.308Z,2.25
2022-09-07T15:46:07.654Z,2.15
2022-09-07T15:48:36.300Z,2.13
2022-09-07T15:52:04.750Z,2.25
2022-09-07T15:57:48.040Z,2.20
2022-09-07T15:59:32.296Z,2.22
2022-09-07T16:02:00.532Z,2.40
2022-09-07T16:04:28.805Z,2.35
2022-09-07T16:06:56.816Z,2.47
2022-09-07T16:09:24.899Z,2.45
2022-09-07T16:11:54.537Z,2.17
2022-09-07T16:14:23.013Z,2.28
2022-09-07T16:19:41.023Z,2.45
2022-09-07T16:22:09.900Z,2.33
2022-09-07T16:24:37.854Z,2.50
2022-09-07T16:27:07.222Z,2.10
2022-09-07T16:29:36.154Z,2.15
2022-09-07T16:34:52.413Z,2.10
2022-09-07T16:37:20.329Z,1.88
2022-09-07T16:39:48.279Z,2.22
2022-09-07T16:42:17.546Z,2.25
2022-09-07T16:44:45.431Z,2.00
2022-09-07T16:47:13.296Z,2.70
2022-09-07T16:49:41.429Z,2.50
2022-09-07T16:52:10.982Z,2.42
2022-09-07T16:54:39.076Z,1.90
2022-09-07T16:57:07.024Z,2.17
2022-09-07T16:59:36.413Z,2.10
2022-09-07T17:02:04.651Z,2.42
2022-09-07T17:04:32.553Z,2.15
2022-09-07T17:07:00.545Z,2.15
2022-09-07T17:09:28.748Z,2.15
2022-09-07T17:11:56.635Z,2.25
2022-09-07T17:14:24.496Z,1.92
2022-09-07T17:16:53.989Z,1.85
2022-09-07T17:19:30.062Z,2.50
2022-09-07T17:21:59.722Z,2.25
2022-09-07T17:24:27.666Z,2.30
2022-09-07T17:26:55.550Z,2.38
2022-09-07T17:29:23.565Z,2.20
2022-09-07T17:34:42.725Z,2.42
2022-09-07T17:37:12.603Z,2.40
2022-09-07T17:39:40.572Z,2.50
2022-09-07T17:42:09.762Z,2.30
2022-09-07T17:44:38.413Z,2.20
2022-09-07T17:47:08.020Z,2.75
2022-09-07T17:49:36.021Z,2.20
2022-09-07T17:52:04.330Z,2.30
2022-09-07T17:54:32.816Z,2.42
2022-09-07T17:57:00.890Z,2.42
2022-09-07T18:02:18.062Z,2.47
2022-09-07T18:04:46.241Z,2.25
2022-09-07T18:07:14.213Z,2.13
2022-09-07T18:09:42.076Z,2.33
2022-09-07T18:12:10.106Z,2.50
2022-09-07T18:14:37.948Z,2.20
2022-09-07T18:17:06.297Z,2.47
2022-09-07T18:19:38.511Z,2.50
2022-09-07T18:22:08.502Z,2.55
2022-09-07T18:24:37.142Z,2.17
2022-09-07T18:27:05.886Z,2.50
2022-09-07T18:29:34.514Z,2.42
2022-09-07T18:32:07.395Z,2.60
2022-09-07T18:34:38.313Z,2.17
2022-09-07T18:37:08.248Z,2.50
2022-09-07T18:39:36.561Z,2.65
2022-09-07T18:42:04.780Z,2.50
2022-09-07T18:47:27.555Z,2.35
2022-09-07T18:49:57.492Z,2.28
2022-09-07T18:55:13.632Z,2.70
2022-09-07T18:57:41.594Z,2.50
2022-09-07T19:00:12.158Z,2.90
2022-09-07T19:02:40.146Z,2.92
2022-09-07T19:07:59.454Z,3.00
2022-09-07T19:10:27.351Z,3.20
2022-09-07T19:12:55.204Z,3.28
2022-09-07T19:15:23.701Z,3.40
2022-09-07T19:17:51.629Z,4.15
2022-09-07T19:20:20.823Z,3.85
2022-09-07T19:22:48.773Z,4.32
2022-09-07T19:25:17.302Z,4.25
2022-09-07T19:27:45.267Z,4.55
2022-09-07T19:30:13.834Z,4.50
2022-09-07T19:32:41.696Z,5.50
2022-09-07T19:35:10.213Z,5.45
2022-09-07T19:37:39.436Z,6.10
2022-09-07T19:40:10.292Z,6.60
2022-09-07T19:42:38.259Z,6.15
2022-09-07T19:45:07.262Z,6.07
2022-09-07T19:47:35.734Z,6.05
2022-09-07T19:50:03.641Z,5.47
2022-09-07T19:52:31.551Z,4.88
2022-09-07T19:55:02.748Z,5.70
2022-09-07T19:57:30.819Z,6.00
2022-09-07T19:59:59.183Z,5.65
2022-09-07T20:02:27.340Z,4.15
2022-09-07T20:04:55.594Z,4.30
2022-09-07T20:07:23.542Z,4.18
2022-09-07T20:09:52.336Z,3.80
2022-09-07T20:12:21.548Z,3.75
2022-09-07T20:14:49.407Z,3.38
2022-09-07T20:17:17.473Z,3.67
2022-09-07T20:19:45.313Z,3.85
2022-09-07T20:22:13.134Z,3.55
2022-09-07T20:24:41.093Z,3.65
2022-09-07T20:27:09.160Z,3.50
2022-09-07T20:29:38.428Z,3.70
2022-09-07T20:32:06.534Z,3.35
2022-09-07T20:34:34.550Z,3.80
2022-09-07T20:37:02.497Z,3.72
2022-09-07T20:39:30.369Z,3.58
2022-09-07T20:41:58.265Z,3.55
2022-09-07T20:44:26.102Z,3.78
2022-09-07T20:46:55.567Z,3.72
2022-09-07T20:49:23.481Z,4.13
2022-09-07T20:51:51.309Z,3.45
2022-09-07T20:54:19.300Z,4.63
2022-09-07T20:56:47.138Z,4.47
2022-09-07T20:59:15.321Z,4.35
2022-09-07T21:01:43.246Z,4.00
2022-09-07T21:04:12.466Z,4.88
2022-09-07T21:06:40.687Z,3.83
2022-09-07T21:09:08.739Z,4.25
2022-09-07T21:11:37.129Z,4.82
2022-09-07T21:14:07.124Z,4.80
2022-09-07T21:16:35.637Z,3.58
2022-09-07T21:19:05.565Z,3.70
2022-09-07T21:21:39.545Z,4.15
2022-09-07T21:24:15.248Z,3.78
2022-09-07T21:26:43.173Z,3.90
2022-09-07T21:29:19.638Z,3.88
2022-09-07T21:31:48.011Z,4.30
2022-09-07T21:34:16.898Z,3.97
2022-09-07T21:36:46.453Z,3.83
2022-09-07T21:39:14.934Z,3.63
2022-09-07T21:41:43.455Z,3.90
2022-09-07T21:44:13.366Z,3.85
2022-09-07T21:46:41.928Z,3.92
2022-09-07T21:49:13.443Z,4.50
2022-09-07T21:51:41.332Z,3.93
2022-09-07T21:54:10.790Z,3.67
2022-09-07T21:56:46.404Z,3.67
2022-09-07T21:59:14.782Z,3.55
2022-09-07T22:01:42.809Z,3.60
2022-09-07T22:04:10.790Z,3.65
2022-09-07T22:06:39.888Z,4.30
2022-09-07T22:09:08.202Z,3.38
2022-09-07T22:11:37.465Z,3.95
2022-09-07T22:14:06.117Z,3.75
2022-09-07T22:16:35.675Z,3.40
2022-09-07T22:19:03.835Z,3.65
2022-09-07T22:21:32.022Z,3.40
2022-09-07T22:24:02.640Z,3.00
2022-09-07T22:26:32.862Z,3.88
2022-09-07T22:29:02.146Z,2.83
2022-09-07T22:31:31.791Z,3.10
2022-09-07T22:34:01.268Z,3.03
2022-09-07T22:36:31.354Z,2.97
2022-09-07T22:39:01.671Z,3.63
2022-09-07T22:41:32.554Z,3.60
2022-09-07T22:44:01.854Z,3.53
2022-09-07T22:46:31.836Z,3.25
2022-09-07T22:49:00.136Z,3.58
2022-09-07T22:51:28.757Z,3.15
2022-09-07T22:53:57.421Z,3.25
2022-09-07T22:56:27.994Z,3.65
2022-09-07T22:58:58.209Z,3.60
2022-09-07T23:01:28.920Z,3.65
2022-09-07T23:03:57.318Z,3.38
2022-09-07T23:06:26.776Z,2.72
2022-09-07T23:08:56.086Z,3.70
2022-09-07T23:11:25.037Z,3.25
2022-09-07T23:13:53.945Z,3.55
2022-09-07T23:16:22.656Z,3.20
2022-09-07T23:18:52.297Z,3.30
2022-09-07T23:21:20.770Z,3.13
2022-09-07T23:23:53.076Z,3.45
2022-09-07T23:28:53.461Z,2.90
2022-09-07T23:33:51.054Z,3.50
2022-09-07T23:36:19.724Z,4.10
2022-09-07T23:38:48.145Z,3.92
2022-09-07T23:41:17.326Z,3.55
2022-09-07T23:43:45.291Z,3.65
2022-09-07T23:46:14.009Z,3.85
2022-09-07T23:48:43.807Z,3.67
2022-09-07T23:51:14.369Z,4.05
2022-09-07T23:53:42.579Z,4.00
2022-09-07T23:56:10.762Z,3.53
2022-09-07T23:58:38.805Z,3.50
